Uttoxeter, United Kingdom
Current Conditions -  °F | °C
As of 7:50 AM on Saturday 20 Dec 2014 (Local Time) from EGNX Reporting Station
Light Rain Light Rain  
Wind Chill: 33°   Ceiling: Unl
Heat Index: 43°   Visibility: 6mi
Dew Point: 37°   Wind: 24mph
Humidity: 81%   Direction: 270°W
Pressure: 30.15"   Gusts: NA
Location:  52.9°N, 1.86°W
Report Text: EGNX 200750Z 27021KT 9999 -RA FEW010 SCT030 06/03 Q1021
Loading
Personal Weather Stations






























Interactive Weather Map New forecast layout! Learn more

10-Day Weather Forecast

Advertisements
Track Severe Weather on mobile